createdAt,value
2023-05-19T00:00:05.407Z,46
2023-05-19T00:00:35.059Z,45
2023-05-19T00:00:51.645Z,46
2023-05-19T00:01:22.749Z,46
2023-05-19T00:01:44.101Z,46
2023-05-19T00:02:11.651Z,45
2023-05-19T00:02:38.478Z,44
2023-05-19T00:02:58.835Z,44
2023-05-19T00:03:31.629Z,44
2023-05-19T00:04:03.037Z,44
2023-05-19T00:04:34.884Z,44
2023-05-19T00:04:51.281Z,44
2023-05-19T00:05:23.137Z,45
2023-05-19T00:05:44.161Z,45
2023-05-19T00:06:11.156Z,44
2023-05-19T00:06:36.963Z,45
2023-05-19T00:06:59.221Z,45
2023-05-19T00:07:31.356Z,45
2023-05-19T00:08:03.202Z,45
2023-05-19T00:08:34.743Z,45
2023-05-19T00:08:51.234Z,45
2023-05-19T00:09:22.490Z,45
2023-05-19T00:09:44.076Z,45
2023-05-19T00:10:12.269Z,44
2023-05-19T00:10:37.039Z,45
2023-05-19T00:10:59.540Z,44
2023-05-19T00:11:31.324Z,45
2023-05-19T00:12:02.906Z,45
2023-05-19T00:12:34.837Z,46
2023-05-19T00:12:53.784Z,45
2023-05-19T00:13:22.533Z,46
2023-05-19T00:13:44.080Z,45
2023-05-19T00:14:10.972Z,45
2023-05-19T00:14:37.248Z,44
2023-05-19T00:14:58.687Z,45
2023-05-19T00:15:32.294Z,44
2023-05-19T00:16:03.038Z,44
2023-05-19T00:16:34.806Z,44
2023-05-19T00:16:51.178Z,44
2023-05-19T00:17:22.527Z,44
2023-05-19T00:17:44.128Z,44
2023-05-19T00:18:11.187Z,44
2023-05-19T00:18:37.049Z,43
2023-05-19T00:18:59.314Z,43
2023-05-19T00:19:31.593Z,43
2023-05-19T00:20:05.135Z,43
2023-05-19T00:20:34.779Z,43
2023-05-19T00:20:51.706Z,42
2023-05-19T00:21:22.725Z,41
2023-05-19T00:21:44.006Z,41
2023-05-19T00:22:11.028Z,41
2023-05-19T00:22:37.155Z,41
2023-05-19T00:22:58.576Z,41
2023-05-19T00:23:31.467Z,40
2023-05-19T00:24:02.834Z,40
2023-05-19T00:24:34.694Z,39
2023-05-19T00:24:51.267Z,40
2023-05-19T00:25:23.005Z,39
2023-05-19T00:25:44.124Z,39
2023-05-19T00:26:11.163Z,39
2023-05-19T00:26:37.278Z,39
2023-05-19T00:26:58.570Z,39
2023-05-19T00:27:31.452Z,39
2023-05-19T00:28:02.831Z,39
2023-05-19T00:28:35.488Z,38
2023-05-19T00:29:06.769Z,38
2023-05-19T00:29:38.650Z,38
2023-05-19T00:30:12.943Z,39
2023-05-19T00:30:37.057Z,39
2023-05-19T00:30:59.365Z,39
2023-05-19T00:31:31.380Z,39
2023-05-19T00:32:03.008Z,39
2023-05-19T00:32:34.682Z,39
2023-05-19T00:32:51.266Z,40
2023-05-19T00:33:22.513Z,40
2023-05-19T00:33:43.951Z,40
2023-05-19T00:34:11.481Z,40
2023-05-19T00:34:37.461Z,41
2023-05-19T00:34:58.594Z,42
2023-05-19T00:35:31.835Z,42
2023-05-19T00:36:02.962Z,43
2023-05-19T00:36:35.167Z,43
2023-05-19T00:36:51.836Z,43
2023-05-19T00:37:22.718Z,43
2023-05-19T00:37:44.269Z,44
2023-05-19T00:38:11.198Z,44
2023-05-19T00:38:37.415Z,43
2023-05-19T00:38:58.550Z,42
2023-05-19T00:39:31.440Z,42
2023-05-19T00:40:04.639Z,42
2023-05-19T00:40:34.901Z,42
2023-05-19T00:41:06.772Z,42
2023-05-19T00:41:38.637Z,42
2023-05-19T00:42:11.175Z,42
2023-05-19T00:42:37.224Z,42
2023-05-19T00:42:58.898Z,42
2023-05-19T00:43:31.265Z,42
2023-05-19T00:44:03.135Z,42
2023-05-19T00:44:34.710Z,42
2023-05-19T00:44:51.143Z,41
2023-05-19T00:45:23.542Z,41
2023-05-19T00:45:44.254Z,41
2023-05-19T00:46:11.199Z,41
2023-05-19T00:46:37.117Z,42
2023-05-19T00:46:58.800Z,42
2023-05-19T00:47:31.468Z,42
2023-05-19T00:48:02.929Z,43
2023-05-19T00:48:34.650Z,45
2023-05-19T00:48:51.338Z,45
2023-05-19T00:49:22.642Z,46
2023-05-19T00:49:44.133Z,46
2023-05-19T00:50:11.602Z,46
2023-05-19T00:50:37.220Z,47
2023-05-19T00:50:59.013Z,47
2023-05-19T00:51:31.410Z,47
2023-05-19T00:52:02.824Z,47
2023-05-19T00:52:35.000Z,47
2023-05-19T00:52:51.228Z,48
2023-05-19T00:53:23.010Z,48
2023-05-19T00:53:44.025Z,49
2023-05-19T00:54:11.356Z,49
2023-05-19T00:54:37.204Z,49
2023-05-19T00:54:58.653Z,50
2023-05-19T00:55:31.779Z,50
2023-05-19T00:56:02.903Z,50
2023-05-19T00:56:34.867Z,50
2023-05-19T00:57:06.754Z,50
2023-05-19T00:57:38.543Z,49
2023-05-19T00:58:11.286Z,50
2023-05-19T00:58:37.343Z,51
2023-05-19T00:58:58.775Z,51
2023-05-19T00:59:31.359Z,51
2023-05-19T01:00:05.436Z,51
2023-05-19T01:00:35.238Z,51
2023-05-19T01:00:51.677Z,52
2023-05-19T01:01:23.085Z,52
2023-05-19T01:01:44.237Z,51
2023-05-19T01:02:11.139Z,50
2023-05-19T01:03:15.968Z,50
2023-05-19T01:03:31.714Z,50
2023-05-19T01:04:03.078Z,49
2023-05-19T01:04:34.790Z,48
2023-05-19T01:04:51.725Z,48
2023-05-19T01:05:23.011Z,48
2023-05-19T01:05:44.063Z,48
2023-05-19T01:06:11.126Z,48
2023-05-19T01:06:37.334Z,49
2023-05-19T01:06:58.802Z,48
2023-05-19T01:07:31.587Z,47
2023-05-19T01:08:03.390Z,47
2023-05-19T01:08:34.641Z,46
2023-05-19T01:08:51.210Z,47
2023-05-19T01:09:22.579Z,48
2023-05-19T01:09:44.018Z,47
2023-05-19T01:10:11.308Z,46
2023-05-19T01:10:37.038Z,47
2023-05-19T01:10:59.652Z,47
2023-05-19T01:11:31.788Z,48
2023-05-19T01:12:02.679Z,48
2023-05-19T01:12:35.414Z,48
2023-05-19T01:13:06.619Z,48
2023-05-19T01:13:41.831Z,48
2023-05-19T01:14:10.950Z,48
2023-05-19T01:14:37.025Z,48
2023-05-19T01:14:58.442Z,48
2023-05-19T01:15:31.323Z,47
2023-05-19T01:16:01.854Z,47
2023-05-19T01:16:33.564Z,47
2023-05-19T01:16:49.640Z,46
2023-05-19T01:17:21.587Z,47
2023-05-19T01:17:43.173Z,46
2023-05-19T01:18:10.074Z,46
2023-05-19T01:18:35.673Z,45
2023-05-19T01:18:57.874Z,46
2023-05-19T01:19:30.259Z,46
2023-05-19T01:20:02.372Z,46
2023-05-19T01:20:33.475Z,46
2023-05-19T01:20:50.165Z,45
2023-05-19T01:21:21.834Z,45
2023-05-19T01:21:42.778Z,45
2023-05-19T01:22:10.036Z,45
2023-05-19T01:22:35.675Z,45
2023-05-19T01:22:57.222Z,45
2023-05-19T01:23:29.932Z,44
2023-05-19T01:24:01.626Z,45
2023-05-19T01:24:33.324Z,45
2023-05-19T01:24:50.276Z,45
2023-05-19T01:25:21.820Z,46
2023-05-19T01:25:43.406Z,46
2023-05-19T01:26:10.297Z,45
2023-05-19T01:26:36.232Z,45
2023-05-19T01:26:57.635Z,45
2023-05-19T01:27:29.960Z,45
2023-05-19T01:28:01.673Z,45
2023-05-19T01:28:33.670Z,44
2023-05-19T01:28:50.383Z,45
2023-05-19T01:29:21.341Z,44
2023-05-19T01:29:43.136Z,44
2023-05-19T01:30:11.269Z,44
2023-05-19T01:30:35.696Z,44
2023-05-19T01:30:58.027Z,44
2023-05-19T01:31:29.695Z,44
2023-05-19T01:32:01.705Z,45
2023-05-19T01:32:33.574Z,45
2023-05-19T01:32:49.634Z,44
2023-05-19T01:33:21.581Z,45
2023-05-19T01:33:43.049Z,46
2023-05-19T01:34:10.030Z,45
2023-05-19T01:34:35.858Z,45
2023-05-19T01:34:57.905Z,46
2023-05-19T01:35:30.656Z,46
2023-05-19T01:36:01.708Z,46
2023-05-19T01:36:33.722Z,45
2023-05-19T01:36:50.360Z,46
2023-05-19T01:37:21.492Z,46
2023-05-19T01:37:42.838Z,46
2023-05-19T01:38:09.954Z,47
2023-05-19T01:38:37.226Z,45
2023-05-19T01:38:57.917Z,45
2023-05-19T01:39:30.696Z,44
2023-05-19T01:40:02.881Z,45
2023-05-19T01:40:33.877Z,46
2023-05-19T01:41:00.742Z,45
2023-05-19T01:41:27.197Z,45
2023-05-19T01:41:46.429Z,46
2023-05-19T01:42:12.519Z,44
2023-05-19T01:42:38.159Z,44
2023-05-19T01:42:59.505Z,44
2023-05-19T01:43:32.094Z,45
2023-05-19T01:44:02.714Z,44
2023-05-19T01:44:34.788Z,44
2023-05-19T01:44:51.280Z,44
2023-05-19T01:45:23.453Z,44
2023-05-19T01:45:44.251Z,43
2023-05-19T01:46:11.119Z,44
2023-05-19T01:46:37.123Z,44
2023-05-19T01:46:58.840Z,44
2023-05-19T01:47:31.880Z,45
2023-05-19T01:48:03.020Z,45
2023-05-19T01:48:34.800Z,46
2023-05-19T01:48:51.092Z,46
2023-05-19T01:49:22.668Z,46
2023-05-19T01:49:44.119Z,45
2023-05-19T01:50:11.638Z,45
2023-05-19T01:50:37.099Z,45
2023-05-19T01:50:59.186Z,45
2023-05-19T01:51:32.328Z,44
2023-05-19T01:52:02.807Z,44
2023-05-19T01:52:34.820Z,44
2023-05-19T01:52:51.088Z,43
2023-05-19T01:53:22.728Z,43
2023-05-19T01:53:44.042Z,43
2023-05-19T01:54:11.069Z,45
2023-05-19T01:54:37.385Z,45
2023-05-19T01:54:58.732Z,44
2023-05-19T01:55:32.569Z,44
2023-05-19T01:56:02.732Z,45
2023-05-19T01:56:35.201Z,46
2023-05-19T01:56:51.928Z,45
2023-05-19T01:57:22.550Z,45
2023-05-19T01:57:44.122Z,45
2023-05-19T01:58:11.067Z,45
2023-05-19T01:58:37.525Z,46
2023-05-19T01:58:58.680Z,46
2023-05-19T01:59:31.646Z,47
2023-05-19T02:00:05.278Z,47
2023-05-19T02:00:35.242Z,47
2023-05-19T02:00:51.507Z,47
2023-05-19T02:01:22.723Z,47
2023-05-19T02:01:44.138Z,49
2023-05-19T02:02:11.068Z,49
2023-05-19T02:02:37.823Z,49
2023-05-19T02:02:58.660Z,48
2023-05-19T02:03:31.695Z,48
2023-05-19T02:04:02.654Z,48
2023-05-19T02:04:34.701Z,47
2023-05-19T02:04:51.010Z,46
2023-05-19T02:05:22.941Z,46
2023-05-19T02:05:44.108Z,47
2023-05-19T02:06:11.072Z,47
2023-05-19T02:06:37.145Z,47
2023-05-19T02:06:58.807Z,47
2023-05-19T02:07:31.793Z,46
2023-05-19T02:08:02.746Z,46
2023-05-19T02:08:34.706Z,45
2023-05-19T02:08:51.225Z,45
2023-05-19T02:09:22.708Z,46
2023-05-19T02:09:44.159Z,46
2023-05-19T02:10:11.465Z,45
2023-05-19T02:10:37.301Z,44
2023-05-19T02:10:59.385Z,45
2023-05-19T02:11:31.185Z,45
2023-05-19T02:12:02.732Z,45
2023-05-19T02:12:34.671Z,46
2023-05-19T02:12:51.116Z,46
2023-05-19T02:13:22.556Z,45
2023-05-19T02:13:44.601Z,45
2023-05-19T02:14:11.084Z,46
2023-05-19T02:14:36.971Z,45
2023-05-19T02:14:58.993Z,46
2023-05-19T02:15:32.533Z,47
2023-05-19T02:16:02.895Z,46
2023-05-19T02:16:34.715Z,47
2023-05-19T02:16:51.005Z,49
2023-05-19T02:17:22.744Z,49
2023-05-19T02:17:44.221Z,49
2023-05-19T02:18:11.116Z,50
2023-05-19T02:18:37.306Z,51
2023-05-19T02:18:58.969Z,52
2023-05-19T02:19:31.897Z,52
2023-05-19T02:20:04.143Z,52
2023-05-19T02:20:34.995Z,52
2023-05-19T02:20:51.597Z,54
2023-05-19T02:21:22.767Z,54
2023-05-19T02:21:44.024Z,55
2023-05-19T02:22:11.258Z,56
2023-05-19T02:22:37.044Z,56
2023-05-19T02:22:58.740Z,57
2023-05-19T02:23:31.899Z,58
2023-05-19T02:24:02.886Z,59
2023-05-19T02:24:34.806Z,60
2023-05-19T02:24:51.490Z,61
2023-05-19T02:25:23.068Z,63
2023-05-19T02:25:44.137Z,65
2023-05-19T02:26:11.489Z,67
2023-05-19T02:26:37.127Z,68
2023-05-19T02:26:58.841Z,69
2023-05-19T02:27:31.582Z,69
2023-05-19T02:28:03.017Z,69
2023-05-19T02:28:34.654Z,72
2023-05-19T02:28:51.497Z,74
2023-05-19T02:29:22.783Z,76
2023-05-19T02:29:43.998Z,78
2023-05-19T02:30:11.918Z,81
2023-05-19T02:30:37.303Z,83
2023-05-19T02:30:59.181Z,88
2023-05-19T02:31:31.557Z,90
2023-05-19T02:32:02.628Z,90
2023-05-19T02:32:34.674Z,90
2023-05-19T02:32:51.048Z,90
2023-05-19T02:33:22.456Z,90
2023-05-19T02:33:44.048Z,90
2023-05-19T02:34:11.486Z,90
2023-05-19T02:34:36.930Z,90
2023-05-19T02:34:58.626Z,90
2023-05-19T02:35:32.191Z,90
2023-05-19T02:36:02.705Z,90
2023-05-19T02:36:34.653Z,90
2023-05-19T02:36:51.022Z,90
2023-05-19T02:37:22.775Z,90
2023-05-19T02:37:44.021Z,90
2023-05-19T02:38:10.953Z,90
2023-05-19T02:38:36.943Z,90
2023-05-19T02:38:58.589Z,90
2023-05-19T02:39:31.591Z,90
2023-05-19T02:40:03.938Z,90
2023-05-19T02:40:34.839Z,90
2023-05-19T02:40:51.359Z,90
2023-05-19T02:41:22.542Z,90
2023-05-19T02:41:44.023Z,90
2023-05-19T02:42:11.101Z,90
2023-05-19T02:42:36.993Z,90
2023-05-19T02:42:58.988Z,90
2023-05-19T02:43:31.581Z,90
2023-05-19T02:44:04.145Z,90
2023-05-19T02:44:34.717Z,90
2023-05-19T02:44:52.071Z,90
2023-05-19T02:45:23.487Z,90
2023-05-19T02:45:43.980Z,90
2023-05-19T02:46:10.940Z,90
2023-05-19T02:46:37.236Z,90
2023-05-19T02:46:58.565Z,90
2023-05-19T02:47:31.450Z,90
2023-05-19T02:48:03.165Z,90
2023-05-19T02:48:34.588Z,90
2023-05-19T02:48:51.229Z,86
2023-05-19T02:49:22.593Z,82
2023-05-19T02:49:44.238Z,77
2023-05-19T02:50:11.416Z,73
2023-05-19T02:50:37.252Z,73
2023-05-19T02:50:58.914Z,73
2023-05-19T02:51:31.599Z,73
2023-05-19T02:52:02.641Z,70
2023-05-19T02:52:34.637Z,69
2023-05-19T02:52:51.034Z,68
2023-05-19T02:53:22.480Z,67
2023-05-19T02:53:44.087Z,66
2023-05-19T02:54:11.105Z,64
2023-05-19T02:54:37.034Z,61
2023-05-19T02:54:58.586Z,57
2023-05-19T02:55:32.033Z,53
2023-05-19T02:56:02.698Z,50
2023-05-19T02:56:34.838Z,47
2023-05-19T02:56:51.041Z,46
2023-05-19T02:57:22.595Z,45
2023-05-19T02:57:44.060Z,44
2023-05-19T02:58:11.057Z,44
2023-05-19T02:58:37.005Z,43
2023-05-19T02:58:58.630Z,43
2023-05-19T02:59:31.513Z,42
2023-05-19T03:00:04.861Z,41
2023-05-19T03:00:34.755Z,40
2023-05-19T03:00:51.323Z,41
2023-05-19T03:01:22.537Z,43
2023-05-19T03:01:44.146Z,43
2023-05-19T03:02:11.150Z,44
2023-05-19T03:02:37.143Z,44
2023-05-19T03:02:58.793Z,44
2023-05-19T03:03:31.641Z,44
2023-05-19T03:04:02.688Z,44
2023-05-19T03:04:34.766Z,45
2023-05-19T03:04:51.152Z,44
2023-05-19T03:05:22.941Z,44
2023-05-19T03:05:44.253Z,45
2023-05-19T03:06:11.445Z,47
2023-05-19T03:06:37.055Z,47
2023-05-19T03:06:58.645Z,48
2023-05-19T03:07:31.530Z,49
2023-05-19T03:08:02.534Z,50
2023-05-19T03:08:35.255Z,50
2023-05-19T03:09:06.541Z,52
2023-05-19T03:09:39.098Z,52
2023-05-19T03:10:11.987Z,52
2023-05-19T03:10:37.185Z,52
2023-05-19T03:10:59.088Z,52
2023-05-19T03:11:31.638Z,52
2023-05-19T03:12:02.653Z,53
2023-05-19T03:12:34.659Z,54
2023-05-19T03:12:51.169Z,55
2023-05-19T03:13:22.500Z,55
2023-05-19T03:13:44.071Z,54
2023-05-19T03:14:11.020Z,54
2023-05-19T03:14:37.036Z,55
2023-05-19T03:14:58.511Z,55
2023-05-19T03:15:32.719Z,54
2023-05-19T03:16:02.716Z,54
2023-05-19T03:16:35.087Z,52
2023-05-19T03:16:51.102Z,51
2023-05-19T03:17:22.610Z,50
2023-05-19T03:17:44.247Z,51
2023-05-19T03:18:11.293Z,50
2023-05-19T03:18:36.948Z,49
2023-05-19T03:18:58.814Z,49
2023-05-19T03:19:31.765Z,48
2023-05-19T03:20:04.784Z,48
2023-05-19T03:20:34.956Z,48
2023-05-19T03:20:51.545Z,48
2023-05-19T03:21:22.833Z,48
2023-05-19T03:21:44.239Z,47
2023-05-19T03:22:11.273Z,48
2023-05-19T03:22:37.156Z,48
2023-05-19T03:22:58.792Z,49
2023-05-19T03:23:31.820Z,49
2023-05-19T03:24:02.949Z,50
2023-05-19T03:24:34.764Z,51
2023-05-19T03:24:51.256Z,52
2023-05-19T03:25:23.047Z,53
2023-05-19T03:25:44.266Z,55
2023-05-19T03:26:11.294Z,56
2023-05-19T03:26:37.849Z,57
2023-05-19T03:26:58.867Z,57
2023-05-19T03:27:31.760Z,59
2023-05-19T03:28:02.901Z,61
2023-05-19T03:28:34.912Z,63
2023-05-19T03:28:51.252Z,64
2023-05-19T03:29:23.293Z,65
2023-05-19T03:29:44.200Z,66
2023-05-19T03:30:12.426Z,69
2023-05-19T03:30:37.975Z,70
2023-05-19T03:31:00.344Z,70
2023-05-19T03:31:31.687Z,69
2023-05-19T03:32:03.225Z,69
2023-05-19T03:32:34.873Z,69
2023-05-19T03:32:51.368Z,70
2023-05-19T03:33:22.998Z,72
2023-05-19T03:33:44.458Z,72
2023-05-19T03:34:11.846Z,71
2023-05-19T03:34:37.193Z,71
2023-05-19T03:34:58.812Z,71
2023-05-19T03:35:32.276Z,70
2023-05-19T03:36:02.781Z,72
2023-05-19T03:36:34.946Z,71
2023-05-19T03:36:51.277Z,70
2023-05-19T03:37:22.743Z,70
2023-05-19T03:37:44.312Z,69
2023-05-19T03:38:12.949Z,68
2023-05-19T03:38:37.246Z,67
2023-05-19T03:38:58.802Z,67
2023-05-19T03:39:32.034Z,65
2023-05-19T03:40:04.434Z,65
2023-05-19T03:40:35.039Z,66
2023-05-19T03:40:52.189Z,65
2023-05-19T03:41:22.919Z,64
2023-05-19T03:41:44.226Z,62
2023-05-19T03:42:11.249Z,60
2023-05-19T03:42:37.207Z,59
2023-05-19T03:42:58.814Z,58
2023-05-19T03:43:31.837Z,56
2023-05-19T03:44:03.013Z,55
2023-05-19T03:44:34.814Z,54
2023-05-19T03:44:52.342Z,54
2023-05-19T03:45:23.872Z,53
2023-05-19T03:45:44.328Z,52
2023-05-19T03:46:11.292Z,51
2023-05-19T03:46:37.184Z,50
2023-05-19T03:46:58.784Z,49
2023-05-19T03:47:32.506Z,47
2023-05-19T03:48:02.977Z,45
2023-05-19T03:48:34.857Z,44
2023-05-19T03:48:51.159Z,45
2023-05-19T03:49:23.217Z,45
2023-05-19T03:49:44.149Z,46
2023-05-19T03:50:11.863Z,45
2023-05-19T03:50:37.232Z,46
2023-05-19T03:50:59.131Z,47
2023-05-19T03:51:32.106Z,48
2023-05-19T03:52:03.014Z,48
2023-05-19T03:52:35.809Z,49
2023-05-19T03:53:06.751Z,49
2023-05-19T03:53:39.077Z,50
2023-05-19T03:54:11.369Z,48
2023-05-19T03:54:37.586Z,47
2023-05-19T03:54:58.816Z,48
2023-05-19T03:55:32.118Z,49
2023-05-19T03:56:02.844Z,50
2023-05-19T03:56:34.956Z,50
2023-05-19T03:56:51.256Z,51
2023-05-19T03:57:22.681Z,51
2023-05-19T03:57:44.229Z,51
2023-05-19T03:58:11.559Z,50
2023-05-19T03:58:37.550Z,50
2023-05-19T03:58:58.837Z,49
2023-05-19T03:59:32.757Z,50
2023-05-19T04:00:06.638Z,51
2023-05-19T04:00:35.217Z,49
2023-05-19T04:00:51.583Z,49
2023-05-19T04:01:23.336Z,49
2023-05-19T04:01:44.148Z,49
2023-05-19T04:02:11.310Z,49
2023-05-19T04:02:37.365Z,49
2023-05-19T04:02:59.185Z,52
2023-05-19T04:03:31.988Z,53
2023-05-19T04:04:03.115Z,52
2023-05-19T04:04:35.536Z,55
2023-05-19T04:05:07.631Z,54
2023-05-19T04:05:38.849Z,54
2023-05-19T04:06:11.328Z,54
2023-05-19T04:06:37.501Z,54
2023-05-19T04:06:58.814Z,54
2023-05-19T04:07:31.934Z,53
2023-05-19T04:08:03.028Z,54
2023-05-19T04:08:34.927Z,55
2023-05-19T04:09:06.795Z,54
2023-05-19T04:09:38.932Z,52
2023-05-19T04:10:11.764Z,52
2023-05-19T04:10:37.234Z,51
2023-05-19T04:10:59.287Z,52
2023-05-19T04:11:31.749Z,52
2023-05-19T04:12:03.181Z,51
2023-05-19T04:12:34.758Z,53
2023-05-19T04:12:51.235Z,51
2023-05-19T04:13:23.132Z,51
2023-05-19T04:13:45.183Z,50
2023-05-19T04:14:11.338Z,46
2023-05-19T04:14:37.421Z,47
2023-05-19T04:14:58.918Z,47
2023-05-19T04:15:32.942Z,47
2023-05-19T04:16:03.077Z,47
2023-05-19T04:16:34.758Z,47
2023-05-19T04:16:51.141Z,48
2023-05-19T04:17:23.317Z,47
2023-05-19T04:17:44.436Z,47
2023-05-19T04:18:11.394Z,48
2023-05-19T04:18:37.351Z,50
2023-05-19T04:18:58.875Z,51
2023-05-19T04:19:31.922Z,51
2023-05-19T04:20:04.522Z,49
2023-05-19T04:20:34.924Z,49
2023-05-19T04:20:51.694Z,50
2023-05-19T04:21:22.855Z,47
2023-05-19T04:21:44.669Z,46
2023-05-19T04:22:11.535Z,45
2023-05-19T04:22:37.243Z,46
2023-05-19T04:22:59.096Z,47
2023-05-19T04:23:31.730Z,46
2023-05-19T04:24:02.866Z,47
2023-05-19T04:24:34.818Z,46
2023-05-19T04:24:51.545Z,47
2023-05-19T04:25:23.349Z,46
2023-05-19T04:25:44.263Z,46
2023-05-19T04:26:11.342Z,47
2023-05-19T04:26:37.254Z,46
2023-05-19T04:26:58.931Z,47
2023-05-19T04:27:32.336Z,47
2023-05-19T04:28:02.998Z,47
2023-05-19T04:28:34.785Z,49
2023-05-19T04:28:51.674Z,49
2023-05-19T04:29:22.687Z,49
2023-05-19T04:29:44.531Z,48
2023-05-19T04:30:12.355Z,49
2023-05-19T04:30:37.344Z,50
2023-05-19T04:30:59.248Z,50
2023-05-19T04:31:31.910Z,52
2023-05-19T04:32:03.083Z,52
2023-05-19T04:32:34.892Z,51
2023-05-19T04:32:51.593Z,51
2023-05-19T04:33:22.733Z,52
2023-05-19T04:33:44.237Z,52
2023-05-19T04:34:11.341Z,51
2023-05-19T04:34:37.226Z,51
2023-05-19T04:34:58.902Z,51
2023-05-19T04:35:32.325Z,53
2023-05-19T04:36:02.887Z,54
2023-05-19T04:36:34.795Z,53
2023-05-19T04:36:53.225Z,52
2023-05-19T04:37:23.004Z,53
2023-05-19T04:37:44.444Z,54
2023-05-19T04:38:11.385Z,54
2023-05-19T04:38:37.569Z,54
2023-05-19T04:38:59.282Z,54
2023-05-19T04:39:31.972Z,57
2023-05-19T04:40:04.756Z,57
2023-05-19T04:40:34.861Z,55
2023-05-19T04:40:51.688Z,55
2023-05-19T04:41:22.935Z,56
2023-05-19T04:41:44.339Z,56
2023-05-19T04:42:11.256Z,60
2023-05-19T04:42:37.340Z,64
2023-05-19T04:42:59.578Z,68
2023-05-19T04:43:31.844Z,73
2023-05-19T04:44:02.789Z,74
2023-05-19T04:44:34.785Z,73
2023-05-19T04:44:51.253Z,71
2023-05-19T04:45:25.506Z,76
2023-05-19T04:45:44.445Z,79
2023-05-19T04:46:13.388Z,78
2023-05-19T04:46:37.246Z,80
2023-05-19T04:46:58.790Z,80
2023-05-19T04:47:31.954Z,81
2023-05-19T04:48:02.999Z,80
2023-05-19T04:48:34.853Z,78
2023-05-19T04:48:51.257Z,79
2023-05-19T04:49:22.771Z,79
2023-05-19T04:49:44.344Z,81
2023-05-19T04:50:11.841Z,81
2023-05-19T04:50:37.141Z,82
2023-05-19T04:50:59.227Z,77
2023-05-19T04:51:31.938Z,71
2023-05-19T04:52:03.343Z,67
2023-05-19T04:52:35.082Z,62
2023-05-19T04:52:51.208Z,60
2023-05-19T04:53:22.597Z,60
2023-05-19T04:53:44.166Z,62
2023-05-19T04:54:11.774Z,58
2023-05-19T04:54:37.314Z,56
2023-05-19T04:54:58.805Z,55
2023-05-19T04:55:32.352Z,52
2023-05-19T04:56:02.945Z,53
2023-05-19T04:56:34.787Z,53
2023-05-19T04:56:51.368Z,55
2023-05-19T04:57:22.711Z,55
2023-05-19T04:57:44.185Z,55
2023-05-19T04:58:11.686Z,58
2023-05-19T04:58:38.051Z,59
2023-05-19T04:58:58.639Z,58
2023-05-19T04:59:31.840Z,58
2023-05-19T05:00:05.176Z,57
2023-05-19T05:00:34.903Z,57
2023-05-19T05:00:51.560Z,56
2023-05-19T05:01:22.971Z,56
2023-05-19T05:01:44.304Z,58
2023-05-19T05:02:11.397Z,59
2023-05-19T05:02:37.452Z,57
2023-05-19T05:02:58.908Z,58
2023-05-19T05:03:31.779Z,58
2023-05-19T05:04:03.447Z,59
2023-05-19T05:04:34.804Z,60
2023-05-19T05:04:51.228Z,59
2023-05-19T05:05:23.698Z,61
2023-05-19T05:05:44.309Z,62
2023-05-19T05:06:11.363Z,62
2023-05-19T05:06:37.140Z,61
2023-05-19T05:06:58.681Z,57
2023-05-19T05:07:32.667Z,54
2023-05-19T05:08:02.845Z,55
2023-05-19T05:08:34.891Z,53
2023-05-19T05:08:51.320Z,55
2023-05-19T05:09:22.668Z,56
2023-05-19T05:09:44.276Z,58
2023-05-19T05:10:12.269Z,59
2023-05-19T05:10:37.391Z,58
2023-05-19T05:10:59.302Z,57
2023-05-19T05:11:31.741Z,55
2023-05-19T05:12:03.139Z,54
2023-05-19T05:12:34.914Z,55
2023-05-19T05:12:51.274Z,56
2023-05-19T05:13:23.086Z,56
2023-05-19T05:13:44.322Z,56
2023-05-19T05:14:11.401Z,54
2023-05-19T05:14:37.658Z,53
2023-05-19T05:14:58.973Z,52
2023-05-19T05:15:33.022Z,52
2023-05-19T05:16:03.070Z,53
2023-05-19T05:16:34.891Z,55
2023-05-19T05:16:51.613Z,56
2023-05-19T05:17:23.057Z,59
2023-05-19T05:17:44.204Z,59
2023-05-19T05:18:11.503Z,58
2023-05-19T05:18:37.308Z,59
2023-05-19T05:18:58.985Z,58
2023-05-19T05:19:32.016Z,58
2023-05-19T05:20:04.840Z,57
2023-05-19T05:20:35.297Z,59
2023-05-19T05:21:07.013Z,59
2023-05-19T05:21:39.150Z,59
2023-05-19T05:22:11.463Z,58
2023-05-19T05:22:37.548Z,56
2023-05-19T05:22:59.108Z,55
2023-05-19T05:23:31.949Z,57
2023-05-19T05:24:02.950Z,61
2023-05-19T05:24:34.913Z,61
2023-05-19T05:24:51.537Z,61
2023-05-19T05:25:23.208Z,61
2023-05-19T05:25:45.283Z,59
2023-05-19T05:26:11.513Z,59
2023-05-19T05:26:37.223Z,57
2023-05-19T05:26:58.946Z,57
2023-05-19T05:27:31.831Z,59
2023-05-19T05:28:02.929Z,58
2023-05-19T05:28:34.786Z,58
2023-05-19T05:28:51.384Z,58
2023-05-19T05:29:22.772Z,59
2023-05-19T05:29:44.168Z,59
2023-05-19T05:30:12.696Z,60
2023-05-19T05:30:37.523Z,61
2023-05-19T05:30:59.237Z,61
2023-05-19T05:31:32.003Z,63
2023-05-19T05:32:02.942Z,63
2023-05-19T05:32:35.123Z,61
2023-05-19T05:32:51.331Z,57
2023-05-19T05:33:23.087Z,56
2023-05-19T05:33:44.413Z,56
2023-05-19T05:34:11.783Z,55
2023-05-19T05:34:37.366Z,56
2023-05-19T05:34:58.851Z,54
2023-05-19T05:35:32.613Z,53
2023-05-19T05:36:02.914Z,51
2023-05-19T05:36:34.845Z,50
2023-05-19T05:36:51.313Z,50
2023-05-19T05:37:23.209Z,50
2023-05-19T05:37:44.310Z,49
2023-05-19T05:38:12.816Z,49
2023-05-19T05:38:37.331Z,48
2023-05-19T05:38:58.883Z,47
2023-05-19T05:39:31.997Z,44
2023-05-19T05:40:04.595Z,45
2023-05-19T05:40:35.051Z,46
2023-05-19T05:40:51.641Z,44
2023-05-19T05:41:22.811Z,45
2023-05-19T05:41:44.521Z,45
2023-05-19T05:42:11.648Z,44
2023-05-19T05:42:37.415Z,45
2023-05-19T05:42:59.074Z,46
2023-05-19T05:43:32.431Z,45
2023-05-19T05:44:03.262Z,48
2023-05-19T05:44:35.251Z,49
2023-05-19T05:44:51.394Z,49
2023-05-19T05:45:24.020Z,48
2023-05-19T05:45:44.752Z,46
2023-05-19T05:46:12.992Z,47
2023-05-19T05:46:37.584Z,49
2023-05-19T05:46:59.010Z,50
2023-05-19T05:47:32.331Z,49
2023-05-19T05:48:03.183Z,49
2023-05-19T05:48:35.005Z,49
2023-05-19T05:48:51.510Z,49
2023-05-19T05:49:23.035Z,48
2023-05-19T05:49:44.489Z,48
2023-05-19T05:50:12.001Z,49
2023-05-19T05:50:37.801Z,50
2023-05-19T05:51:00.308Z,51
2023-05-19T05:51:32.576Z,49
2023-05-19T05:52:06.285Z,48
2023-05-19T05:52:35.442Z,47
2023-05-19T05:52:51.458Z,45
2023-05-19T05:53:23.003Z,44
2023-05-19T05:53:44.512Z,44
2023-05-19T05:54:11.801Z,45
2023-05-19T05:54:37.673Z,46
2023-05-19T05:54:59.092Z,47
2023-05-19T05:55:32.899Z,48
2023-05-19T05:56:03.702Z,46
2023-05-19T05:56:35.644Z,48
2023-05-19T05:56:51.550Z,48
2023-05-19T05:57:23.040Z,48
2023-05-19T05:57:44.536Z,48
2023-05-19T05:58:11.911Z,49
2023-05-19T05:58:37.826Z,49
2023-05-19T05:58:59.108Z,49
2023-05-19T05:59:31.978Z,47
2023-05-19T06:00:05.432Z,46
2023-05-19T06:00:35.542Z,46
2023-05-19T06:00:51.929Z,46
2023-05-19T06:01:23.028Z,47
2023-05-19T06:01:44.476Z,46
2023-05-19T06:02:11.871Z,46
2023-05-19T06:02:38.068Z,47
2023-05-19T06:02:59.640Z,47
2023-05-19T06:03:32.349Z,46
2023-05-19T06:04:03.197Z,43
2023-05-19T06:04:35.100Z,41
2023-05-19T06:04:51.557Z,40
2023-05-19T06:05:23.487Z,38
2023-05-19T06:05:44.519Z,39
2023-05-19T06:06:11.658Z,39
2023-05-19T06:06:37.543Z,40
2023-05-19T06:06:59.277Z,40
2023-05-19T06:07:32.222Z,39
2023-05-19T06:08:03.312Z,37
2023-05-19T06:08:35.234Z,39
2023-05-19T06:08:51.461Z,39
2023-05-19T06:09:23.053Z,40
2023-05-19T06:09:44.788Z,42
2023-05-19T06:10:12.071Z,41
2023-05-19T06:10:37.532Z,42
2023-05-19T06:10:59.503Z,41
2023-05-19T06:11:32.064Z,39
2023-05-19T06:12:03.131Z,38
2023-05-19T06:12:35.179Z,38
2023-05-19T06:12:51.416Z,38
2023-05-19T06:13:23.719Z,38
2023-05-19T06:13:44.958Z,39
2023-05-19T06:14:11.925Z,39
2023-05-19T06:14:37.748Z,39
2023-05-19T06:14:59.306Z,39
2023-05-19T06:15:33.181Z,37
2023-05-19T06:16:03.202Z,36
2023-05-19T06:16:35.143Z,38
2023-05-19T06:16:51.805Z,39
2023-05-19T06:17:22.865Z,38
2023-05-19T06:17:44.720Z,40
2023-05-19T06:18:12.094Z,42
2023-05-19T06:18:37.754Z,42
2023-05-19T06:18:59.455Z,45
2023-05-19T06:19:32.160Z,47
2023-05-19T06:20:04.889Z,49
2023-05-19T06:20:35.361Z,52
2023-05-19T06:20:51.836Z,52
2023-05-19T06:21:23.151Z,54
2023-05-19T06:21:44.506Z,54
2023-05-19T06:22:12.290Z,53
2023-05-19T06:22:37.523Z,53
2023-05-19T06:22:59.302Z,54
2023-05-19T06:23:32.155Z,55
2023-05-19T06:24:03.277Z,57
2023-05-19T06:24:35.949Z,58